Aérodrome :
LOGIN :

S'inscrire | Disclaimer

   EN    FR    IT 

 










Légende :    VFR   VFR Marginal   IFR   IFR Intensif   IFR Très Intensif
Visi : 
Plafond : 
>= 8 km
>= 3000ft
5 à 8 km
1000 à 3000 ft
1500m à 5 km
500 à 1000 ft
800 à 1500m
200 à 500 ft
< 800m
< 200 ft
Symboles :   Orages  Brouillard  Fortes neiges  Fortes précipitations  Vent > 20 kt
SIGMETs :   Divers  Orages  Givrage  Turbulence  Onde Orograph.  Cendres Volcan.







- Altitude de l'aérodrome : 375 ft
- Code IATA : MST


EHBK - Maastricht Aachen

DERNIER METAR :
  • 231725Z AUTO 21016KT 9999 OVC018 09/06 Q1019 NOSIG

METARs EXPIRÉS :
  • 231655Z AUTO 20016KT 9999 OVC019 09/06 Q1019 NOSIG
  • 231625Z AUTO 21018KT 9999 FEW016 OVC019 09/06 Q1019 NOSIG
  • 231555Z AUTO 21017KT 9999 OVC022 09/05 Q1019 NOSIG
  • 231525Z AUTO 21016KT 9999 SCT025 OVC029 09/05 Q1019 NOSIG
  • 231455Z AUTO 20016KT 180V240 9999 OVC033 09/05 Q1019 REDZ NOSIG

TAF TAF EHBK
Valide du 23 à 18h jusqu'au 25 à 00h UTC


231713Z 2318/2424 21015KT 9999 OVC016
TEMPO 2318/2408 7000 -RADZ BKN013
PROB30 2322/2406 BKN008
BECMG 2408/2411 21021G33KT
TEMPO 2423/2424 4000 SHRA BKN008 SCT015TCU OVC020
Pas de NOTAMs connus pour ce terrain.



MET'MAP, la Météo Aéronautique d'un coup d'oeil ! - Copyright ORBIFLY Décembre 2007 - Disclaimer

ORBIFLY MET'MAP TEAM :

Programmation & Développement : Alexandra Zaïnal
Conception & Développement : Baudouin d'Aumeries
Co-Programmation & Développement : Marc-Olivier Méhu
Soutien technique & logistique : Manuel Goepfert

Contact : metmap@orbifly.com




SOURCES & CREDITS :

   NOAA